Flight Track Log - Related Links

Times and Time Zones

All times are in EDT time to prevent confusion due to time zone crossing. See the N75ZM flight status page for this flight to view local times or setup timezone preferences in your user account.

Time Position Orientation Groundspeed Altitude Reporting Facility
EDT Latitude Longitude Course Direction KTS MPH feet Rate Location/Type
Wed 05:18:00 PM 32.9709 -80.3322 286° West  Level Estimated
Wed 05:19:00 PM 32.9821 -80.3811 285° West  Level FlightAware Approximate
Wed 05:20:00 PM 32.9933 -80.4301 285° West  Level FlightAware Approximate
Wed 05:21:00 PM 33.0045 -80.4790 285° West  Level FlightAware Approximate
Wed 05:21:45 PM 32.9964 -80.4283 286° West 129 148 8,100  Level Jacksonville Center
Wed 05:22:00 PM 33.0157 -80.5279 285° West  Level FlightAware Approximate
Wed 05:22:45 PM 33.0078 -80.4750 286° West 134 154 8,100  Level Jacksonville Center
Wed 05:23:00 PM 33.0269 -80.5769 285° West  Level FlightAware Approximate
Wed 05:23:45 PM 33.0189 -80.5217 286° West 144 166 8,100  Level Jacksonville Center
Wed 05:24:00 PM 33.0380 -80.6259 285° West  Level FlightAware Approximate
Wed 05:24:45 PM 33.0325 -80.5708 288° West 144 166 8,100  Level Jacksonville Center
Wed 05:25:00 PM 33.0499 -80.6746 286° West  Level Estimated
Wed 05:25:45 PM 33.0436 -80.6178 286° West 149 171 8,100  Level Jacksonville Center
Wed 05:26:00 PM 33.0614 -80.7235 286° West  Level FlightAware Approximate
Wed 05:26:45 PM 33.0550 -80.6669 285° West 149 171 8,100  Level Jacksonville Center
Wed 05:27:45 PM 33.0664 -80.7164 285° West 149 171 8,100  Level Jacksonville Center
Wed 05:28:45 PM 33.0775 -80.7631 286° West 154 177 8,100  Level Jacksonville Center
Wed 05:29:45 PM 33.0889 -80.8125 285° West 154 177 8,100  Level Jacksonville Center
Wed 05:30:45 PM 33.1000 -80.8617 285° West 154 177 8,100  Level Jacksonville Center
Wed 05:31:45 PM 33.1133 -80.9086 289° West 149 171 8,100  Level Jacksonville Center
Wed 05:32:46 PM 33.1225 -80.9581 282° West 149 171 8,100  Level Jacksonville Center
Wed 05:33:45 PM 33.1356 -81.0022 289° West 149 171 8,100  Level Jacksonville Center
Wed 05:34:45 PM 33.1467 -81.0492 286° West 144 166 8,100  Level Jacksonville Center
Wed 05:35:45 PM 33.1578 -81.0961 286° West 144 166 8,100  Level Jacksonville Center
Wed 05:36:45 PM 33.1689 -81.1431 286° West 144 166 8,100  Level Jacksonville Center
Wed 05:37:45 PM 33.1800 -81.1900 286° West 144 166 8,100  Level Jacksonville Center
Wed 05:38:45 PM 33.1911 -81.2369 286° West 144 166 8,100 Level Jacksonville Center
Wed 05:40:00 PM 33.2020 -81.2960 282° West  Level FlightAware Approximate
Wed 05:47:00 PM 33.2699 -81.6249 285° West  Level FlightAware Approximate
Wed 05:48:00 PM 33.2806 -81.6716 285° West  Level FlightAware Approximate
Wed 05:49:00 PM 33.2925 -81.7191 287° West  Level FlightAware Approximate
Wed 05:50:00 PM 33.3044 -81.7665 287° West  Level FlightAware Approximate
Wed 05:51:00 PM 33.3162 -81.8140 287° West  Level FlightAware Approximate
Wed 05:52:00 PM 33.3280 -81.8615 287° West  Level FlightAware Approximate
Wed 05:53:00 PM 33.3399 -81.9091 287° West  Level FlightAware Approximate
Wed 05:54:00 PM 33.3552 -81.9530 335° Northwest  Level FlightAware Approximate
Wed 05:55:00 PM 33.3926 -81.9743 335° Northwest  Level FlightAware Approximate
Wed 05:56:00 PM 33.4109 -82.0185 296° West  Level FlightAware Approximate
Wed 05:57:00 PM 33.4291 -82.0628 296° West  Level FlightAware Approximate
Wed 05:58:00 PM 33.4473 -82.1070 296° West  Level FlightAware Approximate
Wed 05:59:00 PM 33.4656 -82.1513 296° West  Level FlightAware Approximate
Wed 06:00:00 PM 33.4838 -82.1956 296° West  Level FlightAware Approximate
Wed 06:01:00 PM 33.5019 -82.2400 296° West  Level FlightAware Approximate
Wed 06:02:00 PM 33.5201 -82.2843 296° West  Level FlightAware Approximate
Wed 06:03:00 PM 33.5383 -82.3287 296° West  Level FlightAware Approximate
Wed 06:04:00 PM 33.5564 -82.3731 296° West  Level FlightAware Approximate
Wed 06:05:00 PM 33.5745 -82.4175 296° West  Level FlightAware Approximate
Wed 06:06:00 PM 33.5926 -82.4619 296° West  Level FlightAware Approximate
Wed 06:07:00 PM 33.6107 -82.5064 296° West  Level FlightAware Approximate
Wed 06:08:00 PM 33.6288 -82.5508 296° West  Level FlightAware Approximate
Wed 06:09:00 PM 33.6469 -82.5953 296° West  Level FlightAware Approximate
Wed 06:10:00 PM 33.6649 -82.6398 296° West  Level FlightAware Approximate
Wed 06:11:00 PM 33.6829 -82.6843 296° West  Level FlightAware Approximate
Wed 06:11:36 PM 33.7000 -82.7000 295° West 148 170 8,200  Level Atlanta TRACON
Wed 06:12:00 PM 33.7010 -82.7289 296° West  Level FlightAware Approximate
Wed 06:12:36 PM 33.7167 -82.7500 292° West 146 168 8,200  Level Atlanta TRACON
Wed 06:13:00 PM 33.7189 -82.7734 296° West  Level FlightAware Approximate
Wed 06:13:42 PM 33.7333 -82.8000 292° West 148 170 8,100  Level Atlanta TRACON
Wed 06:14:00 PM 33.7369 -82.8180 296° West  Level FlightAware Approximate
Wed 06:14:36 PM 33.7667 -82.8500 309° West 150 173 8,100  Level Atlanta TRACON
Wed 06:15:00 PM 33.7549 -82.8626 296° West  Level FlightAware Approximate
Wed 06:15:36 PM 33.7667 -82.8833 270° West 147 169 8,100  Level Atlanta TRACON
Wed 06:16:00 PM 33.7728 -82.9072 296° West  Level FlightAware Approximate
Wed 06:16:36 PM 33.8000 -82.9333 309° West 147 169 8,100  Level Atlanta TRACON
Wed 06:17:00 PM 33.7907 -82.9520 295° West  Level FlightAware Approximate
Wed 06:17:36 PM 33.8167 -82.9833 292° West 148 170 8,100  Level Atlanta TRACON
Wed 06:18:36 PM 33.8167 -83.0333 270° West 164 189 7,600 -524 Descending Atlanta TRACON
Wed 06:19:42 PM 33.8167 -83.0833 270° West 170 196 7,000 -500 Descending Atlanta TRACON
Wed 06:20:36 PM 33.8167 -83.1500 270° West 173 199 6,600 -450 Descending Atlanta TRACON
Wed 06:21:42 PM 33.8167 -83.2000 270° West 172 198 6,100 -263 Descending Atlanta TRACON
Wed 06:22:30 PM 33.8167 -83.2500 270° West 164 189 6,100  Level Atlanta TRACON
Wed 06:23:30 PM 33.8333 -83.3000 292° West 163 188 6,100  Level Atlanta TRACON
Wed 06:24:30 PM 33.8333 -83.3500 270° West 159 183 6,100  Level Atlanta TRACON
Wed 06:25:30 PM 33.8333 -83.4000 270° West 162 186 6,100  Level Atlanta TRACON
Wed 06:26:24 PM 33.8333 -83.4500 270° West 159 183 6,100  Level Atlanta TRACON
Wed 06:27:30 PM 33.8333 -83.5167 270° West 161 185 6,100  Level Atlanta TRACON
Wed 06:28:30 PM 33.8333 -83.5667 270° West 163 188 6,100  Level Atlanta TRACON
Wed 06:29:30 PM 33.8500 -83.6333 287° West 162 186 6,100  Level Atlanta TRACON
Wed 06:30:30 PM 33.8500 -83.6833 270° West 164 189 6,100  Level Atlanta TRACON
Wed 06:31:30 PM 33.8500 -83.7333 270° West 162 186 6,100 -250 Level Atlanta TRACON
Wed 06:32:30 PM 33.8500 -83.7833 270° West 177 204 5,600 -474 Descending Atlanta TRACON
Wed 06:33:24 PM 33.8500 -83.8500 270° West 182 209 5,200 -500 Descending Atlanta TRACON
Wed 06:34:30 PM 33.8500 -83.9167 270° West 189 217 4,600 -619 Descending Atlanta TRACON
Wed 06:35:30 PM 33.8667 -83.9667 292° West 191 220 3,900 -650 Descending Atlanta TRACON
Wed 06:36:30 PM 33.8667 -84.0333 270° West 187 215 3,300 -400 Descending Atlanta TRACON
Wed 06:37:30 PM 33.8667 -84.1000 270° West 169 194 3,100 -150 Descending Atlanta TRACON
Wed 06:38:30 PM 33.8667 -84.1500 270° West 170 196 3,000 -286 Descending Atlanta TRACON
Wed 06:39:36 PM 33.8667 -84.2167 270° West 168 193 2,500 -400 Descending Atlanta TRACON
Wed 06:40:30 PM 33.8500 -84.2667 248° West 160 184 2,200 -316 Descending Atlanta TRACON
Wed 06:41:30 PM 33.8500 -84.3000 270° West 109 125 1,900 -300 Descending Atlanta TRACON
Wed 06:43:00 PM 33.8667 -84.3000 273° West  Level FlightAware Approximate
Wed 06:50:00 PM 33.8756 -84.3020 273° West  Level Estimated

Login

Don't have an account? Register now (free) for customized features, flight alerts, and more!